createdAt,value
2022-08-18T00:00:19.971Z,21.00
2022-08-18T00:05:22.853Z,21.20
2022-08-18T00:10:27.148Z,21.10
2022-08-18T00:15:29.404Z,21.10
2022-08-18T00:20:31.619Z,21.00
2022-08-18T00:25:33.776Z,21.00
2022-08-18T00:30:35.984Z,20.90
2022-08-18T00:35:39.552Z,20.90
2022-08-18T00:40:52.652Z,21.50
2022-08-18T00:45:54.848Z,22.10
2022-08-18T00:51:02.248Z,22.80
2022-08-18T00:56:10.434Z,24.00
2022-08-18T01:01:16.015Z,23.70
2022-08-18T01:06:32.158Z,24.30
2022-08-18T01:11:36.920Z,24.90
2022-08-18T01:16:58.003Z,24.90
2022-08-18T01:22:11.827Z,25.00
2022-08-18T01:27:18.477Z,25.60
2022-08-18T01:32:23.358Z,25.60
2022-08-18T01:37:25.554Z,26.90
2022-08-18T01:42:27.759Z,26.20
2022-08-18T01:47:47.159Z,26.30
2022-08-18T01:52:53.317Z,26.60
2022-08-18T01:57:55.987Z,26.90
2022-08-18T02:03:01.957Z,26.80
2022-08-18T02:08:06.286Z,27.00
2022-08-18T02:13:08.989Z,26.40
2022-08-18T02:18:46.934Z,27.20
2022-08-18T02:23:44.927Z,27.30
2022-08-18T02:28:54.960Z,27.20
2022-08-18T02:33:57.279Z,27.20
2022-08-18T02:39:00.221Z,27.30
2022-08-18T02:44:04.022Z,28.40
2022-08-18T02:49:08.142Z,27.90
2022-08-18T02:54:11.405Z,28.30
2022-08-18T02:59:17.279Z,28.20
2022-08-18T03:04:29.865Z,28.60
2022-08-18T03:09:33.369Z,28.20
2022-08-18T03:14:37.343Z,28.00
2022-08-18T03:19:39.522Z,28.00
2022-08-18T03:24:41.788Z,28.10
2022-08-18T03:29:43.907Z,28.10
2022-08-18T03:34:46.143Z,28.30
2022-08-18T03:39:51.580Z,28.10
2022-08-18T03:44:53.749Z,28.90
2022-08-18T03:49:55.870Z,28.30
2022-08-18T03:54:57.982Z,29.20
2022-08-18T04:00:01.327Z,28.30
2022-08-18T04:05:07.877Z,28.30
2022-08-18T04:10:19.210Z,28.40
2022-08-18T04:15:22.047Z,28.70
2022-08-18T04:20:24.264Z,28.60
2022-08-18T04:25:32.189Z,28.70
2022-08-18T04:30:36.136Z,28.60
2022-08-18T04:35:38.290Z,28.70
2022-08-18T04:40:41.778Z,29.00
2022-08-18T04:45:47.740Z,29.30
2022-08-18T04:50:49.822Z,30.10
2022-08-18T04:55:54.409Z,29.50
2022-08-18T05:01:01.337Z,29.60
2022-08-18T05:06:11.136Z,29.80
2022-08-18T05:11:14.182Z,29.90
2022-08-18T05:16:26.197Z,30.00
2022-08-18T05:21:30.422Z,30.10
2022-08-18T05:26:32.676Z,30.30
2022-08-18T05:31:34.903Z,30.30
2022-08-18T05:36:58.382Z,30.20
2022-08-18T05:42:12.697Z,31.90
2022-08-18T05:47:28.696Z,31.00
2022-08-18T05:52:36.845Z,31.10
2022-08-18T05:57:58.103Z,31.10
2022-08-18T06:03:13.038Z,31.60
2022-08-18T06:08:16.731Z,31.80
2022-08-18T06:13:20.461Z,32.00
2022-08-18T06:18:26.549Z,32.00
2022-08-18T06:23:50.344Z,31.50
2022-08-18T06:28:58.964Z,31.70
2022-08-18T06:34:24.325Z,31.60
2022-08-18T06:39:45.467Z,31.70
2022-08-18T06:44:52.939Z,31.90
2022-08-18T06:50:05.090Z,32.00
2022-08-18T06:55:13.894Z,32.10
2022-08-18T07:00:19.015Z,32.00
2022-08-18T07:05:30.898Z,32.50
2022-08-18T07:10:39.987Z,32.30
2022-08-18T07:15:45.671Z,31.70
2022-08-18T07:20:55.291Z,31.30
2022-08-18T07:26:11.995Z,31.60
2022-08-18T07:31:31.869Z,31.40
2022-08-18T07:36:47.360Z,31.60
2022-08-18T07:41:57.301Z,30.70
2022-08-18T07:47:04.851Z,30.20
2022-08-18T07:52:43.808Z,29.50
2022-08-18T07:58:32.850Z,29.20
2022-08-18T08:03:53.620Z,29.00
2022-08-18T08:09:09.831Z,28.40
2022-08-18T08:14:37.109Z,28.40
2022-08-18T08:20:00.063Z,28.30
2022-08-18T08:31:33.355Z,27.60
2022-08-18T08:36:31.390Z,27.20
2022-08-18T08:41:50.995Z,26.40
2022-08-18T08:47:01.045Z,26.00
2022-08-18T08:52:24.524Z,26.00
2022-08-18T08:57:41.234Z,26.00
2022-08-18T09:03:09.616Z,26.10
2022-08-18T09:08:33.627Z,26.10
2022-08-18T09:13:44.582Z,25.60
2022-08-18T09:19:12.739Z,25.60
2022-08-18T09:24:25.757Z,25.50
2022-08-18T09:29:54.818Z,25.50
2022-08-18T09:35:19.954Z,25.70
2022-08-18T09:41:02.329Z,25.90
2022-08-18T09:46:12.372Z,26.20
2022-08-18T09:51:39.788Z,26.50
2022-08-18T09:56:54.346Z,26.80
2022-08-18T10:01:59.391Z,27.10
2022-08-18T10:07:41.978Z,27.20
2022-08-18T10:12:59.798Z,27.10
2022-08-18T10:18:33.947Z,27.00
2022-08-18T10:23:58.444Z,27.10
2022-08-18T10:29:34.591Z,27.20
2022-08-18T10:34:52.262Z,26.90
2022-08-18T10:39:59.314Z,26.40
2022-08-18T10:45:24.654Z,26.60
2022-08-18T10:50:30.551Z,26.20
2022-08-18T10:56:01.959Z,26.50
2022-08-18T11:01:21.846Z,26.20
2022-08-18T11:06:26.148Z,26.20
2022-08-18T11:11:52.997Z,25.80
2022-08-18T11:17:11.053Z,25.50
2022-08-18T11:22:31.889Z,25.50
2022-08-18T11:27:35.851Z,25.40
2022-08-18T11:32:42.696Z,25.00
2022-08-18T11:38:04.295Z,24.60
2022-08-18T11:43:15.223Z,24.30
2022-08-18T11:48:29.743Z,24.10
2022-08-18T11:53:53.859Z,23.50
2022-08-18T11:59:06.362Z,23.50
2022-08-18T12:04:14.518Z,23.00
2022-08-18T12:15:17.570Z,21.90
2022-08-18T12:20:26.587Z,21.90
2022-08-18T12:25:28.749Z,21.70
2022-08-18T12:30:30.850Z,21.10
2022-08-18T12:35:34.889Z,20.70
2022-08-18T12:40:38.142Z,20.20
2022-08-18T12:45:41.615Z,20.60
2022-08-18T12:50:54.020Z,20.10
2022-08-18T12:56:24.840Z,20.20
2022-08-18T13:01:28.359Z,19.40
2022-08-18T13:06:33.612Z,19.50
2022-08-18T13:11:36.405Z,17.80
2022-08-18T13:16:53.923Z,17.80
2022-08-18T13:21:57.818Z,17.40
2022-08-18T13:27:04.034Z,17.20
2022-08-18T13:32:21.210Z,16.10
2022-08-18T13:37:26.525Z,16.00
2022-08-18T13:42:34.389Z,14.90
2022-08-18T13:47:54.058Z,14.10
2022-08-18T13:53:01.934Z,13.00
2022-08-18T13:58:04.550Z,11.70
2022-08-18T14:03:30.950Z,11.40
2022-08-18T14:08:45.657Z,10.60
2022-08-18T14:13:47.847Z,10.30
2022-08-18T14:19:10.575Z,10.70
2022-08-18T14:24:31.202Z,10.20
2022-08-18T14:29:46.182Z,9.90
2022-08-18T14:34:50.669Z,8.60
2022-08-18T14:39:53.896Z,8.40
2022-08-18T14:44:58.192Z,8.10
2022-08-18T14:50:21.689Z,7.30
2022-08-18T14:55:27.941Z,7.00
2022-08-18T15:00:31.589Z,5.80
2022-08-18T15:05:34.334Z,5.20
2022-08-18T15:10:37.895Z,5.30
2022-08-18T15:15:44.478Z,5.20
2022-08-18T15:21:19.614Z,4.90
2022-08-18T15:26:35.838Z,5.50
2022-08-18T15:31:57.955Z,6.00
2022-08-18T15:37:09.783Z,6.50
2022-08-18T15:42:13.474Z,6.90
2022-08-18T15:47:20.687Z,7.30
2022-08-18T15:52:25.945Z,7.60
2022-08-18T15:57:38.888Z,7.70
2022-08-18T16:02:48.402Z,7.60
2022-08-18T16:07:52.455Z,7.40
2022-08-18T16:12:56.800Z,6.60
2022-08-18T16:17:59.998Z,6.90
2022-08-18T16:23:03.444Z,7.20
2022-08-18T16:28:05.904Z,8.00
2022-08-18T16:33:08.579Z,8.20
2022-08-18T16:38:10.920Z,8.60
2022-08-18T16:43:14.685Z,8.30
2022-08-18T16:48:17.114Z,8.20
2022-08-18T16:53:19.398Z,8.60
2022-08-18T16:58:40.657Z,8.80
2022-08-18T17:04:01.656Z,9.10
2022-08-18T17:09:09.878Z,9.30
2022-08-18T17:14:12.598Z,9.80
2022-08-18T17:19:14.982Z,9.90
2022-08-18T17:24:19.876Z,10.10
2022-08-18T17:29:47.918Z,9.90
2022-08-18T17:34:58.319Z,9.30
2022-08-18T17:40:12.185Z,9.70
2022-08-18T17:45:21.657Z,10.00
2022-08-18T17:50:48.908Z,10.20
2022-08-18T17:56:09.942Z,10.30
2022-08-18T18:01:12.938Z,10.40
2022-08-18T18:06:24.984Z,10.60
2022-08-18T18:11:32.567Z,10.80
2022-08-18T18:16:35.448Z,11.00
2022-08-18T18:21:53.383Z,11.30
2022-08-18T18:27:01.595Z,11.60
2022-08-18T18:32:22.189Z,11.90
2022-08-18T18:37:32.493Z,12.10
2022-08-18T18:42:36.351Z,12.20
2022-08-18T18:48:03.978Z,12.30
2022-08-18T18:53:12.394Z,12.40
2022-08-18T18:58:42.949Z,13.40
2022-08-18T19:04:02.928Z,12.70
2022-08-18T19:09:19.686Z,13.00
2022-08-18T19:14:33.258Z,13.40
2022-08-18T19:19:46.552Z,13.80
2022-08-18T19:25:21.199Z,13.90
2022-08-18T19:30:23.993Z,13.80
2022-08-18T19:35:51.272Z,14.40
2022-08-18T19:41:19.934Z,15.30
2022-08-18T19:46:38.022Z,15.50
2022-08-18T19:51:42.184Z,16.00
2022-08-18T19:57:10.422Z,16.50
2022-08-18T20:02:35.063Z,17.20
2022-08-18T20:07:52.036Z,17.00
2022-08-18T20:13:33.709Z,17.30
2022-08-18T20:18:39.541Z,17.70
2022-08-18T20:24:06.840Z,18.50
2022-08-18T20:29:11.756Z,18.20
2022-08-18T20:34:14.727Z,19.20
2022-08-18T20:39:34.638Z,19.50
2022-08-18T20:44:49.685Z,19.60
2022-08-18T20:50:22.962Z,20.20
2022-08-18T20:55:37.452Z,20.50
2022-08-18T21:00:44.992Z,20.80
2022-08-18T21:05:50.070Z,21.20
2022-08-18T21:11:01.074Z,21.60
2022-08-18T21:16:03.799Z,21.40
2022-08-18T21:21:15.917Z,22.00
2022-08-18T21:26:31.403Z,22.40
2022-08-18T21:31:44.229Z,22.40
2022-08-18T21:36:55.849Z,22.80
2022-08-18T21:41:59.486Z,22.40
2022-08-18T21:47:19.596Z,22.80
2022-08-18T21:52:28.117Z,23.00
2022-08-18T21:57:50.019Z,23.20
2022-08-18T22:03:23.041Z,23.10
2022-08-18T22:08:27.726Z,23.50
2022-08-18T22:13:48.321Z,23.40
2022-08-18T22:18:50.736Z,23.90
2022-08-18T22:24:11.641Z,24.20
2022-08-18T22:29:17.414Z,23.90
2022-08-18T22:34:27.754Z,24.30
2022-08-18T22:39:50.829Z,23.90
2022-08-18T22:44:54.368Z,24.00
2022-08-18T22:49:57.807Z,24.40
2022-08-18T22:55:03.240Z,24.30
2022-08-18T23:00:14.587Z,24.60
2022-08-18T23:05:17.132Z,24.80
2022-08-18T23:10:20.566Z,24.60
2022-08-18T23:15:40.164Z,25.00
2022-08-18T23:20:42.403Z,25.10
2022-08-18T23:25:44.622Z,25.10
2022-08-18T23:30:49.601Z,25.00
2022-08-18T23:35:52.614Z,24.80
2022-08-18T23:40:57.255Z,25.00
2022-08-18T23:45:59.404Z,24.90
2022-08-18T23:51:03.045Z,24.90
2022-08-18T23:56:06.113Z,25.10
